createdAt,value
2019-03-11T00:00:17.967Z,0.00
2019-03-11T00:01:17.928Z,0.00
2019-03-11T00:02:17.923Z,0.00
2019-03-11T00:03:17.928Z,0.00
2019-03-11T00:04:18.870Z,0.00
2019-03-11T00:05:17.911Z,0.00
2019-03-11T00:06:17.909Z,0.00
2019-03-11T00:07:17.864Z,0.00
2019-03-11T00:08:17.873Z,0.00
2019-03-11T00:09:17.841Z,0.00
2019-03-11T00:10:17.830Z,0.00
2019-03-11T00:11:17.846Z,0.00
2019-03-11T00:12:17.849Z,0.00
2019-03-11T00:13:17.795Z,0.00
2019-03-11T00:14:17.788Z,0.00
2019-03-11T00:15:17.778Z,0.00
2019-03-11T00:16:17.763Z,0.00
2019-03-11T00:17:17.772Z,0.00
2019-03-11T00:18:17.764Z,0.00
2019-03-11T00:19:17.732Z,0.00
2019-03-11T00:20:17.759Z,0.00
2019-03-11T00:21:17.707Z,0.00
2019-03-11T00:22:17.699Z,0.00
2019-03-11T00:23:17.708Z,0.00
2019-03-11T00:24:17.677Z,0.00
2019-03-11T00:25:17.687Z,0.00
2019-03-11T00:26:17.650Z,0.00
2019-03-11T00:27:17.644Z,0.00
2019-03-11T00:28:17.629Z,0.00
2019-03-11T00:29:17.622Z,0.00
2019-03-11T00:30:17.627Z,0.00
2019-03-11T00:31:17.594Z,0.00
2019-03-11T00:32:17.588Z,0.00
2019-03-11T00:33:17.598Z,0.00
2019-03-11T00:34:17.569Z,0.00
2019-03-11T00:35:17.550Z,0.00
2019-03-11T00:36:17.540Z,0.00
2019-03-11T00:37:17.556Z,0.00
2019-03-11T00:38:17.521Z,0.00
2019-03-11T00:39:17.508Z,0.00
2019-03-11T00:40:17.511Z,0.00
2019-03-11T00:41:17.492Z,0.00
2019-03-11T00:42:17.476Z,0.00
2019-03-11T00:43:17.489Z,0.00
2019-03-11T00:44:17.454Z,0.00
2019-03-11T00:45:17.440Z,0.00
2019-03-11T00:46:17.428Z,0.00
2019-03-11T00:47:17.469Z,0.00
2019-03-11T00:48:17.405Z,0.00
2019-03-11T00:49:17.396Z,0.00
2019-03-11T00:50:17.383Z,0.00
2019-03-11T00:51:17.374Z,0.00
2019-03-11T00:52:17.387Z,0.00
2019-03-11T00:53:17.350Z,0.00
2019-03-11T00:54:17.345Z,0.00
2019-03-11T00:55:17.361Z,0.00
2019-03-11T00:56:17.319Z,0.00
2019-03-11T00:57:17.309Z,0.00
2019-03-11T00:58:17.311Z,0.00
2019-03-11T00:59:17.290Z,0.00
2019-03-11T01:00:17.305Z,0.00
2019-03-11T01:01:17.261Z,0.00
2019-03-11T01:02:17.252Z,0.00
2019-03-11T01:03:17.239Z,0.00
2019-03-11T01:04:17.227Z,0.00
2019-03-11T01:05:17.243Z,0.00
2019-03-11T01:06:17.205Z,0.00
2019-03-11T01:07:17.199Z,0.00
2019-03-11T01:08:17.205Z,0.00
2019-03-11T01:09:17.198Z,0.00
2019-03-11T01:10:17.196Z,0.00
2019-03-11T01:11:17.176Z,0.00
2019-03-11T01:12:17.167Z,0.00
2019-03-11T01:13:17.127Z,0.00
2019-03-11T01:14:17.122Z,0.00
2019-03-11T01:15:17.108Z,0.00
2019-03-11T01:16:17.101Z,0.00
2019-03-11T01:17:17.110Z,0.00
2019-03-11T01:18:17.075Z,0.00
2019-03-11T01:19:17.063Z,0.00
2019-03-11T01:20:17.049Z,0.00
2019-03-11T01:21:17.038Z,0.00
2019-03-11T01:22:17.043Z,0.00
2019-03-11T01:23:17.035Z,0.00
2019-03-11T01:24:17.016Z,0.00
2019-03-11T01:25:17.013Z,0.00
2019-03-11T01:26:16.994Z,0.00
2019-03-11T01:27:16.978Z,0.00
2019-03-11T01:28:16.990Z,0.00
2019-03-11T01:29:16.978Z,0.00
2019-03-11T01:30:16.946Z,0.00
2019-03-11T01:31:16.927Z,0.00
2019-03-11T01:32:16.923Z,0.00
2019-03-11T01:33:16.926Z,0.00
2019-03-11T01:34:16.929Z,0.00
2019-03-11T01:35:16.889Z,0.00
2019-03-11T01:36:16.875Z,0.00
2019-03-11T01:37:16.863Z,0.00
2019-03-11T01:38:16.850Z,0.00
2019-03-11T01:39:16.869Z,0.00
2019-03-11T01:40:16.843Z,0.00
2019-03-11T01:41:16.823Z,0.00
2019-03-11T01:42:16.841Z,0.00
2019-03-11T01:43:16.798Z,0.00
2019-03-11T01:44:16.811Z,0.00
2019-03-11T01:45:16.800Z,0.00
2019-03-11T01:46:16.761Z,0.00
2019-03-11T01:47:16.753Z,0.00
2019-03-11T01:48:16.741Z,0.00
2019-03-11T01:49:16.756Z,0.00
2019-03-11T01:50:16.719Z,0.00
2019-03-11T01:51:16.736Z,0.00
2019-03-11T01:52:16.697Z,0.00
2019-03-11T01:53:16.690Z,0.00
2019-03-11T01:54:16.673Z,0.00
2019-03-11T01:55:16.665Z,0.00
2019-03-11T01:56:16.676Z,0.00
2019-03-11T01:57:16.645Z,0.00
2019-03-11T01:58:16.652Z,0.00
2019-03-11T01:59:16.627Z,0.00
2019-03-11T02:00:16.616Z,0.00
2019-03-11T02:01:16.626Z,0.00
2019-03-11T02:02:16.586Z,0.00
2019-03-11T02:03:16.573Z,0.00
2019-03-11T02:04:16.568Z,0.00
2019-03-11T02:05:16.556Z,0.00
2019-03-11T02:06:16.572Z,0.00
2019-03-11T02:07:16.529Z,0.00
2019-03-11T02:08:16.519Z,0.00
2019-03-11T02:09:16.531Z,0.00
2019-03-11T02:10:16.520Z,0.00
2019-03-11T02:11:16.485Z,0.00
2019-03-11T02:12:16.497Z,0.00
2019-03-11T02:13:16.463Z,0.00
2019-03-11T02:14:16.474Z,0.00
2019-03-11T02:15:16.441Z,0.00
2019-03-11T02:16:16.427Z,0.00
2019-03-11T02:17:16.422Z,0.00
2019-03-11T02:18:16.409Z,0.00
2019-03-11T02:19:16.424Z,0.00
2019-03-11T02:20:16.411Z,0.00
2019-03-11T02:21:16.375Z,0.00
2019-03-11T02:22:16.389Z,0.00
2019-03-11T02:23:16.353Z,0.00
2019-03-11T02:24:16.341Z,0.00
2019-03-11T02:25:16.331Z,0.00
2019-03-11T02:26:16.319Z,0.00
2019-03-11T02:27:16.322Z,0.00
2019-03-11T02:28:16.297Z,0.00
2019-03-11T02:29:16.290Z,0.00
2019-03-11T02:30:16.293Z,0.00
2019-03-11T02:31:16.272Z,0.00
2019-03-11T02:32:16.280Z,0.00
2019-03-11T02:33:16.242Z,0.00
2019-03-11T02:34:16.242Z,0.00
2019-03-11T02:35:16.223Z,0.00
2019-03-11T02:36:16.211Z,0.00
2019-03-11T02:37:16.222Z,0.00
2019-03-11T02:38:16.190Z,0.00
2019-03-11T02:39:16.180Z,0.00
2019-03-11T02:40:16.179Z,0.00
2019-03-11T02:41:16.161Z,0.00
2019-03-11T02:42:16.146Z,0.00
2019-03-11T02:43:16.130Z,0.00
2019-03-11T02:44:16.145Z,0.00
2019-03-11T02:45:16.118Z,0.00
2019-03-11T02:46:16.100Z,0.00
2019-03-11T02:47:16.087Z,0.00
2019-03-11T02:48:16.075Z,0.00
2019-03-11T02:49:16.092Z,0.00
2019-03-11T02:50:16.054Z,0.00
2019-03-11T02:51:16.056Z,0.00
2019-03-11T02:52:16.033Z,0.00
2019-03-11T02:53:16.042Z,0.00
2019-03-11T02:54:16.013Z,0.00
2019-03-11T02:55:15.997Z,0.00
2019-03-11T02:56:16.111Z,0.00
2019-03-11T02:57:15.993Z,0.00
2019-03-11T02:58:15.971Z,0.00
2019-03-11T02:59:15.962Z,0.00
2019-03-11T03:00:15.977Z,0.00
2019-03-11T03:01:15.933Z,0.00
2019-03-11T03:02:15.923Z,0.00
2019-03-11T03:03:15.908Z,0.00
2019-03-11T03:04:15.899Z,0.00
2019-03-11T03:05:15.924Z,0.00
2019-03-11T03:06:15.878Z,0.00
2019-03-11T03:07:15.878Z,0.00
2019-03-11T03:08:15.856Z,0.00
2019-03-11T03:09:15.846Z,0.00
2019-03-11T03:10:15.856Z,0.00
2019-03-11T03:11:15.821Z,0.00
2019-03-11T03:12:15.817Z,0.00
2019-03-11T03:13:15.837Z,0.00
2019-03-11T03:14:15.785Z,0.00
2019-03-11T03:15:15.778Z,0.00
2019-03-11T03:16:15.767Z,0.00
2019-03-11T03:17:15.783Z,0.00
2019-03-11T03:18:15.740Z,0.00
2019-03-11T03:19:15.762Z,0.00
2019-03-11T03:20:15.720Z,0.00
2019-03-11T03:21:15.709Z,0.00
2019-03-11T03:22:15.722Z,0.00
2019-03-11T03:23:15.690Z,0.00
2019-03-11T03:24:15.678Z,0.00
2019-03-11T03:25:15.670Z,0.00
2019-03-11T03:26:15.655Z,0.00
2019-03-11T03:27:15.664Z,0.00
2019-03-11T03:28:15.627Z,0.00
2019-03-11T03:29:15.647Z,0.00
2019-03-11T03:30:15.612Z,0.00
2019-03-11T03:31:15.610Z,0.00
2019-03-11T03:32:15.595Z,0.00
2019-03-11T03:33:15.591Z,0.00
2019-03-11T03:34:15.597Z,0.00
2019-03-11T03:35:15.550Z,0.00
2019-03-11T03:36:15.543Z,0.00
2019-03-11T03:37:15.534Z,0.00
2019-03-11T03:38:29.655Z,0.00
2019-03-11T03:39:16.527Z,0.00
2019-03-11T03:40:15.502Z,0.00
2019-03-11T03:41:15.512Z,0.00
2019-03-11T03:42:15.478Z,0.00
2019-03-11T03:43:15.465Z,0.00
2019-03-11T03:44:15.454Z,0.00
2019-03-11T03:45:15.474Z,0.00
2019-03-11T03:46:19.309Z,0.00
2019-03-11T03:47:15.423Z,0.00
2019-03-11T03:48:15.490Z,0.00
2019-03-11T03:49:15.397Z,0.00
2019-03-11T03:50:15.388Z,0.00
2019-03-11T03:51:15.379Z,0.00
2019-03-11T03:52:15.387Z,0.00
2019-03-11T03:53:15.359Z,0.00
2019-03-11T03:54:15.345Z,0.00
2019-03-11T03:55:15.334Z,0.00
2019-03-11T03:56:15.387Z,0.00
2019-03-11T03:57:15.344Z,0.00
2019-03-11T03:58:15.301Z,0.00
2019-03-11T03:59:15.287Z,0.00
2019-03-11T04:00:15.272Z,0.00
2019-03-11T04:01:15.263Z,0.00
2019-03-11T04:02:15.490Z,0.00
2019-03-11T04:03:15.239Z,0.00
2019-03-11T04:04:15.234Z,0.00
2019-03-11T04:05:15.226Z,0.00
2019-03-11T04:06:15.207Z,0.00
2019-03-11T04:07:15.225Z,0.00
2019-03-11T04:08:15.211Z,0.00
2019-03-11T04:09:15.184Z,0.00
2019-03-11T04:10:15.162Z,0.00
2019-03-11T04:11:15.181Z,0.00
2019-03-11T04:12:15.143Z,0.00
2019-03-11T04:13:15.162Z,0.00
2019-03-11T04:14:15.116Z,0.00
2019-03-11T04:15:15.109Z,0.00
2019-03-11T04:16:15.097Z,0.00
2019-03-11T04:17:15.115Z,0.00
2019-03-11T04:18:15.083Z,0.00
2019-03-11T04:19:15.060Z,0.00
2019-03-11T04:20:15.057Z,0.00
2019-03-11T04:21:15.072Z,0.00
2019-03-11T04:22:15.028Z,0.00
2019-03-11T04:23:15.019Z,0.00
2019-03-11T04:24:15.017Z,0.00
2019-03-11T04:25:15.012Z,0.00
2019-03-11T04:26:15.003Z,0.00
2019-03-11T04:27:14.990Z,0.00
2019-03-11T04:28:14.967Z,0.00
2019-03-11T04:29:14.952Z,0.00
2019-03-11T04:30:14.939Z,0.00
2019-03-11T04:31:14.949Z,0.00
2019-03-11T04:32:14.927Z,0.00
2019-03-11T04:33:14.912Z,0.00
2019-03-11T04:34:14.895Z,0.00
2019-03-11T04:35:14.887Z,0.00
2019-03-11T04:36:14.912Z,0.00
2019-03-11T04:37:14.863Z,0.00
2019-03-11T04:38:14.876Z,0.00
2019-03-11T04:39:14.851Z,0.00
2019-03-11T04:40:14.857Z,0.00
2019-03-11T04:41:14.850Z,0.00
2019-03-11T04:42:14.814Z,0.00
2019-03-11T04:43:14.799Z,0.00
2019-03-11T04:44:14.784Z,0.00
2019-03-11T04:45:14.779Z,0.00
2019-03-11T04:46:14.781Z,0.00
2019-03-11T04:47:14.751Z,0.00
2019-03-11T04:48:14.764Z,0.00
2019-03-11T04:49:14.734Z,0.00
2019-03-11T04:50:14.719Z,0.00
2019-03-11T04:51:14.738Z,0.00
2019-03-11T04:52:14.699Z,0.00
2019-03-11T04:53:14.686Z,0.00
2019-03-11T04:54:14.674Z,0.00
2019-03-11T04:55:14.690Z,0.00
2019-03-11T04:56:14.654Z,0.00
2019-03-11T04:57:14.646Z,0.00
2019-03-11T04:58:14.656Z,0.00
2019-03-11T04:59:14.629Z,0.00
2019-03-11T05:00:14.611Z,0.00
2019-03-11T05:01:14.595Z,0.00
2019-03-11T05:02:14.589Z,0.00
2019-03-11T05:03:14.592Z,0.00
2019-03-11T05:04:14.563Z,0.00
2019-03-11T05:05:14.550Z,0.00
2019-03-11T05:06:14.545Z,0.00
2019-03-11T05:07:14.529Z,0.00
2019-03-11T05:08:14.552Z,0.00
2019-03-11T05:09:14.512Z,0.00
2019-03-11T05:10:16.302Z,0.00
2019-03-11T05:11:14.487Z,0.00
2019-03-11T05:12:14.479Z,0.00
2019-03-11T05:13:14.489Z,0.00
2019-03-11T05:14:14.477Z,0.00
2019-03-11T05:15:14.447Z,0.00
2019-03-11T05:16:14.455Z,0.00
2019-03-11T05:17:14.418Z,0.00
2019-03-11T05:18:14.408Z,0.00
2019-03-11T05:19:14.427Z,0.00
2019-03-11T05:20:14.417Z,0.00
2019-03-11T05:21:14.401Z,0.00
2019-03-11T05:22:14.378Z,0.00
2019-03-11T05:23:14.354Z,0.00
2019-03-11T05:24:14.344Z,0.00
2019-03-11T05:25:14.331Z,0.00
2019-03-11T05:26:14.349Z,0.00
2019-03-11T05:27:14.308Z,0.00
2019-03-11T05:28:14.298Z,0.00
2019-03-11T05:29:14.310Z,0.00
2019-03-11T05:30:14.275Z,0.00
2019-03-11T05:31:14.285Z,0.00
2019-03-11T05:32:14.255Z,0.00
2019-03-11T05:33:14.261Z,0.00
2019-03-11T05:34:14.238Z,0.00
2019-03-11T05:35:14.230Z,0.00
2019-03-11T05:36:14.215Z,0.00
2019-03-11T05:37:14.231Z,0.00
2019-03-11T05:38:14.188Z,0.00
2019-03-11T05:39:14.198Z,0.00
2019-03-11T05:40:14.166Z,0.00
2019-03-11T05:41:14.218Z,0.00
2019-03-11T05:42:14.141Z,0.00
2019-03-11T05:43:14.134Z,0.00
2019-03-11T05:44:14.148Z,0.00
2019-03-11T05:45:14.111Z,0.00
2019-03-11T05:46:14.099Z,0.00
2019-03-11T05:47:14.093Z,0.00
2019-03-11T05:48:14.076Z,0.00
2019-03-11T05:49:14.085Z,0.00
2019-03-11T05:50:14.052Z,0.00
2019-03-11T05:51:14.043Z,5.62
2019-03-11T05:52:14.051Z,5.62
2019-03-11T05:53:14.039Z,5.62
2019-03-11T05:54:14.023Z,5.62
2019-03-11T05:55:14.003Z,5.62
2019-03-11T05:56:14.008Z,5.62
2019-03-11T05:57:13.991Z,5.62
2019-03-11T05:58:13.991Z,11.25
2019-03-11T05:59:13.956Z,11.25
2019-03-11T06:00:13.943Z,11.25
2019-03-11T06:01:13.928Z,11.25
2019-03-11T06:02:13.923Z,11.25
2019-03-11T06:03:13.936Z,11.25
2019-03-11T06:04:13.899Z,11.25
2019-03-11T06:05:13.915Z,11.25
2019-03-11T06:06:13.874Z,11.25
2019-03-11T06:07:13.863Z,11.25
2019-03-11T06:08:13.859Z,11.25
2019-03-11T06:09:13.870Z,11.25
2019-03-11T06:10:13.852Z,11.25
2019-03-11T06:11:13.819Z,11.25
2019-03-11T06:12:13.836Z,11.25
2019-03-11T06:13:13.804Z,11.25
2019-03-11T06:14:13.786Z,11.25
2019-03-11T06:15:13.777Z,16.88
2019-03-11T06:16:13.765Z,22.50
2019-03-11T06:17:13.775Z,22.50
2019-03-11T06:18:13.745Z,28.12
2019-03-11T06:19:13.751Z,28.12
2019-03-11T06:20:13.718Z,28.12
2019-03-11T06:21:13.712Z,28.12
2019-03-11T06:22:13.701Z,28.12
2019-03-11T06:23:13.687Z,28.12
2019-03-11T06:24:13.701Z,22.50
2019-03-11T06:25:13.670Z,22.50
2019-03-11T06:26:13.677Z,22.50
2019-03-11T06:27:13.645Z,22.50
2019-03-11T06:28:13.717Z,22.50
2019-03-11T06:29:13.643Z,16.88
2019-03-11T06:30:13.612Z,16.88
2019-03-11T06:31:13.598Z,16.88
2019-03-11T06:32:13.602Z,16.88
2019-03-11T06:33:13.584Z,16.88
2019-03-11T06:34:13.582Z,16.88
2019-03-11T06:35:13.569Z,22.50
2019-03-11T06:36:13.547Z,22.50
2019-03-11T06:37:13.545Z,22.50
2019-03-11T06:38:13.547Z,28.12
2019-03-11T06:39:13.510Z,33.75
2019-03-11T06:40:13.497Z,33.75
2019-03-11T06:41:13.486Z,33.75
2019-03-11T06:42:13.493Z,39.38
2019-03-11T06:43:13.467Z,45.00
2019-03-11T06:44:13.460Z,50.62
2019-03-11T06:45:13.441Z,56.25
2019-03-11T06:46:13.457Z,67.50
2019-03-11T06:47:13.446Z,67.50
2019-03-11T06:48:13.436Z,61.88
2019-03-11T06:49:13.398Z,45.00
2019-03-11T06:50:13.387Z,45.00
2019-03-11T06:51:13.402Z,50.62
2019-03-11T06:52:13.376Z,56.25
2019-03-11T06:53:13.380Z,61.88
2019-03-11T06:54:13.367Z,67.50
2019-03-11T06:55:13.337Z,90.00
2019-03-11T06:56:13.338Z,95.62
2019-03-11T06:57:13.309Z,95.62
2019-03-11T06:58:13.319Z,90.00
2019-03-11T06:59:13.291Z,78.75
2019-03-11T07:00:13.275Z,73.12
2019-03-11T07:01:13.388Z,67.50
2019-03-11T07:02:13.281Z,50.62
2019-03-11T07:03:13.242Z,50.62
2019-03-11T07:04:13.257Z,50.62
2019-03-11T07:05:19.975Z,50.62
2019-03-11T07:06:14.212Z,50.62
2019-03-11T07:07:13.199Z,56.25
2019-03-11T07:08:13.188Z,56.25
2019-03-11T07:09:13.230Z,73.12
2019-03-11T07:10:13.190Z,78.75
2019-03-11T07:11:13.153Z,84.38
2019-03-11T07:12:13.168Z,90.00
2019-03-11T07:13:13.133Z,90.00
2019-03-11T07:14:13.124Z,95.62
2019-03-11T07:15:13.114Z,95.62
2019-03-11T07:16:13.098Z,95.62
2019-03-11T07:17:13.115Z,90.00
2019-03-11T07:18:13.075Z,84.38
2019-03-11T07:19:13.069Z,84.38
2019-03-11T07:20:13.052Z,95.62
2019-03-11T07:21:13.044Z,101.25
2019-03-11T07:22:14.567Z,106.88
2019-03-11T07:23:13.030Z,112.50
2019-03-11T07:24:13.014Z,106.88
2019-03-11T07:25:13.007Z,106.88
2019-03-11T07:26:12.989Z,106.88
2019-03-11T07:27:13.005Z,101.25
2019-03-11T07:28:12.972Z,95.62
2019-03-11T07:29:12.953Z,73.12
2019-03-11T07:30:12.962Z,67.50
2019-03-11T07:31:12.933Z,67.50
2019-03-11T07:32:12.949Z,73.12
2019-03-11T07:33:12.909Z,84.38
2019-03-11T07:34:12.900Z,73.12
2019-03-11T07:35:12.910Z,73.12
2019-03-11T07:36:12.904Z,73.12
2019-03-11T07:37:12.906Z,78.75
2019-03-11T07:38:12.889Z,78.75
2019-03-11T07:39:12.847Z,84.38
2019-03-11T07:40:12.840Z,95.62
2019-03-11T07:41:12.847Z,112.50
2019-03-11T07:42:12.811Z,112.50
2019-03-11T07:43:12.797Z,118.12
2019-03-11T07:44:12.823Z,129.38
2019-03-11T07:45:12.778Z,140.62
2019-03-11T07:46:12.769Z,146.25
2019-03-11T07:47:12.759Z,157.50
2019-03-11T07:48:12.742Z,157.50
2019-03-11T07:49:12.755Z,163.12
2019-03-11T07:50:12.721Z,163.12
2019-03-11T07:51:12.712Z,157.50
2019-03-11T07:52:12.723Z,151.88
2019-03-11T07:53:12.689Z,163.12
2019-03-11T07:54:12.696Z,157.50
2019-03-11T07:55:12.690Z,163.12
2019-03-11T07:56:12.658Z,157.50
2019-03-11T07:57:12.652Z,151.88
2019-03-11T07:58:12.644Z,135.00
2019-03-11T07:59:12.618Z,129.38
2019-03-11T08:00:12.609Z,135.00
2019-03-11T08:01:12.614Z,146.25
2019-03-11T08:02:12.584Z,146.25
2019-03-11T08:03:12.604Z,168.75
2019-03-11T08:04:12.587Z,168.75
2019-03-11T08:05:12.554Z,146.25
2019-03-11T08:06:18.618Z,157.50
2019-03-11T08:07:13.558Z,157.50
2019-03-11T08:08:12.518Z,140.62
2019-03-11T08:09:12.511Z,135.00
2019-03-11T08:10:12.495Z,123.75
2019-03-11T08:11:12.485Z,118.12
2019-03-11T08:12:12.477Z,101.25
2019-03-11T08:13:12.483Z,84.38
2019-03-11T08:14:12.467Z,95.62
2019-03-11T08:15:12.440Z,101.25
2019-03-11T08:16:12.434Z,95.62
2019-03-11T08:17:12.418Z,90.00
2019-03-11T08:18:12.432Z,90.00
2019-03-11T08:19:12.400Z,95.62
2019-03-11T08:20:12.385Z,101.25
2019-03-11T08:21:12.375Z,101.25
2019-03-11T08:22:12.363Z,101.25
2019-03-11T08:23:12.375Z,101.25
2019-03-11T08:24:12.341Z,101.25
2019-03-11T08:25:12.444Z,101.25
2019-03-11T08:26:12.317Z,112.50
2019-03-11T08:27:12.308Z,106.88
2019-03-11T08:28:12.301Z,90.00
2019-03-11T08:29:12.286Z,61.88
2019-03-11T08:30:12.297Z,50.62
2019-03-11T08:31:12.261Z,50.62
2019-03-11T08:32:12.264Z,50.62
2019-03-11T08:33:12.243Z,50.62
2019-03-11T08:34:12.229Z,50.62
2019-03-11T08:35:12.256Z,45.00
2019-03-11T08:36:12.206Z,50.62
2019-03-11T08:37:12.198Z,50.62
2019-03-11T08:38:12.184Z,50.62
2019-03-11T08:39:12.181Z,56.25
2019-03-11T08:40:12.189Z,56.25
2019-03-11T08:41:12.155Z,50.62
2019-03-11T08:42:12.142Z,45.00
2019-03-11T08:43:12.129Z,39.38
2019-03-11T08:44:12.138Z,45.00
2019-03-11T08:45:12.104Z,45.00
2019-03-11T08:46:12.092Z,50.62
2019-03-11T08:47:12.085Z,61.88
2019-03-11T08:48:12.100Z,78.75
2019-03-11T08:49:12.058Z,101.25
2019-03-11T08:50:12.050Z,129.38
2019-03-11T08:51:12.062Z,135.00
2019-03-11T08:52:12.048Z,135.00
2019-03-11T08:53:12.013Z,140.62
2019-03-11T08:54:12.008Z,135.00
2019-03-11T08:55:11.994Z,146.25
2019-03-11T08:56:11.983Z,157.50
2019-03-11T08:57:11.991Z,163.12
2019-03-11T08:58:11.962Z,146.25
2019-03-11T08:59:11.948Z,101.25
2019-03-11T09:00:11.936Z,67.50
2019-03-11T09:01:11.950Z,56.25
2019-03-11T09:02:11.919Z,50.62
2019-03-11T09:03:11.901Z,50.62
2019-03-11T09:04:11.890Z,45.00
2019-03-11T09:05:11.879Z,50.62
2019-03-11T09:06:11.890Z,56.25
2019-03-11T09:07:11.855Z,61.88
2019-03-11T09:08:11.844Z,95.62
2019-03-11T09:09:11.835Z,118.12
2019-03-11T09:10:11.823Z,123.75
2019-03-11T09:11:11.840Z,123.75
2019-03-11T09:12:11.800Z,118.12
2019-03-11T09:13:11.792Z,112.50
2019-03-11T09:14:11.778Z,95.62
2019-03-11T09:15:11.772Z,84.38
2019-03-11T09:16:11.779Z,95.62
2019-03-11T09:17:11.748Z,112.50
2019-03-11T09:18:11.740Z,106.88
2019-03-11T09:19:11.797Z,106.88
2019-03-11T09:20:11.710Z,95.62
2019-03-11T09:21:11.723Z,106.88
2019-03-11T09:22:11.687Z,118.12
2019-03-11T09:23:11.692Z,135.00
2019-03-11T09:24:19.156Z,123.75
2019-03-11T09:25:12.661Z,101.25
2019-03-11T09:26:11.672Z,95.62
2019-03-11T09:27:11.632Z,95.62
2019-03-11T09:28:11.643Z,84.38
2019-03-11T09:29:11.614Z,78.75
2019-03-11T09:30:11.598Z,73.12
2019-03-11T09:31:11.590Z,78.75
2019-03-11T09:32:11.617Z,84.38
2019-03-11T09:33:11.568Z,84.38
2019-03-11T09:34:11.558Z,78.75
2019-03-11T09:35:11.555Z,78.75
2019-03-11T09:36:11.536Z,73.12
2019-03-11T09:37:11.546Z,73.12
2019-03-11T09:38:11.601Z,61.88
2019-03-11T09:39:11.503Z,50.62
2019-03-11T09:40:11.486Z,50.62
2019-03-11T09:41:11.477Z,56.25
2019-03-11T09:42:11.474Z,61.88
2019-03-11T09:43:11.481Z,61.88
2019-03-11T09:44:11.447Z,56.25
2019-03-11T09:45:11.452Z,61.88
2019-03-11T09:46:11.421Z,73.12
2019-03-11T09:47:11.410Z,106.88
2019-03-11T09:48:11.397Z,129.38
2019-03-11T09:49:11.416Z,140.62
2019-03-11T09:50:11.373Z,129.38
2019-03-11T09:51:11.362Z,123.75
2019-03-11T09:52:11.355Z,112.50
2019-03-11T09:53:11.373Z,101.25
2019-03-11T09:54:11.353Z,95.62
2019-03-11T09:55:11.349Z,101.25
2019-03-11T09:56:11.307Z,118.12
2019-03-11T09:57:11.295Z,140.62
2019-03-11T09:58:11.309Z,157.50
2019-03-11T09:59:11.305Z,146.25
2019-03-11T10:00:11.265Z,146.25
2019-03-11T10:01:11.254Z,135.00
2019-03-11T10:02:12.405Z,129.38
2019-03-11T10:03:11.229Z,123.75
2019-03-11T10:04:11.241Z,118.12
2019-03-11T10:05:11.206Z,146.25
2019-03-11T10:06:11.218Z,151.88
2019-03-11T10:07:11.190Z,163.12
2019-03-11T10:08:11.179Z,168.75
2019-03-11T10:09:11.167Z,174.38
2019-03-11T10:10:11.152Z,157.50
2019-03-11T10:11:11.160Z,135.00
2019-03-11T10:12:11.150Z,123.75
2019-03-11T10:13:11.135Z,129.38
2019-03-11T10:14:11.137Z,123.75
2019-03-11T10:15:11.096Z,129.38
2019-03-11T10:16:11.082Z,129.38
2019-03-11T10:17:11.096Z,123.75
2019-03-11T10:18:11.065Z,118.12
2019-03-11T10:19:11.073Z,112.50
2019-03-11T10:20:11.044Z,106.88
2019-03-11T10:21:11.053Z,101.25
2019-03-11T10:22:11.038Z,95.62
2019-03-11T10:23:11.027Z,84.38
2019-03-11T10:24:10.994Z,78.75
2019-03-11T10:25:10.984Z,67.50
2019-03-11T10:26:10.970Z,67.50
2019-03-11T10:27:10.960Z,73.12
2019-03-11T10:28:10.965Z,78.75
2019-03-11T10:29:10.967Z,78.75
2019-03-11T10:30:10.928Z,84.38
2019-03-11T10:31:10.917Z,95.62
2019-03-11T10:32:10.910Z,106.88
2019-03-11T10:33:10.895Z,106.88
2019-03-11T10:34:10.908Z,95.62
2019-03-11T10:35:30.237Z,73.12
2019-03-11T10:36:11.857Z,61.88
2019-03-11T10:37:10.850Z,56.25
2019-03-11T10:38:10.858Z,61.88
2019-03-11T10:39:10.831Z,61.88
2019-03-11T10:40:10.834Z,67.50
2019-03-11T10:41:10.801Z,61.88
2019-03-11T10:42:10.791Z,73.12
2019-03-11T10:43:10.803Z,90.00
2019-03-11T10:44:10.771Z,95.62
2019-03-11T10:45:10.761Z,90.00
2019-03-11T10:46:10.764Z,95.62
2019-03-11T10:47:10.737Z,112.50
2019-03-11T10:48:10.747Z,129.38
2019-03-11T10:49:10.716Z,163.12
2019-03-11T10:50:10.709Z,196.88
2019-03-11T10:51:10.690Z,185.62
2019-03-11T10:52:10.683Z,146.25
2019-03-11T10:53:10.691Z,146.25
2019-03-11T10:54:10.656Z,151.88
2019-03-11T10:55:10.646Z,146.25
2019-03-11T10:56:10.661Z,123.75
2019-03-11T10:57:10.623Z,95.62
2019-03-11T10:58:10.639Z,61.88
2019-03-11T10:59:10.606Z,45.00
2019-03-11T11:00:10.594Z,45.00
2019-03-11T11:01:10.578Z,45.00
2019-03-11T11:02:10.565Z,39.38
2019-03-11T11:03:10.573Z,39.38
2019-03-11T11:04:10.561Z,33.75
2019-03-11T11:05:10.555Z,33.75
2019-03-11T11:06:10.546Z,39.38
2019-03-11T11:07:10.516Z,45.00
2019-03-11T11:08:10.498Z,56.25
2019-03-11T11:09:10.489Z,73.12
2019-03-11T11:10:10.504Z,84.38
2019-03-11T11:11:10.475Z,101.25
2019-03-11T11:12:10.462Z,118.12
2019-03-11T11:13:10.460Z,129.38
2019-03-11T11:14:10.442Z,135.00
2019-03-11T11:15:10.453Z,174.38
2019-03-11T11:16:10.414Z,196.88
2019-03-11T11:17:10.400Z,196.88
2019-03-11T11:18:10.404Z,191.25
2019-03-11T11:19:10.377Z,163.12
2019-03-11T11:20:10.388Z,168.75
2019-03-11T11:21:10.353Z,174.38
2019-03-11T11:22:10.345Z,151.88
2019-03-11T11:23:10.352Z,118.12
2019-03-11T11:24:10.322Z,129.38
2019-03-11T11:25:10.312Z,129.38
2019-03-11T11:26:10.297Z,129.38
2019-03-11T11:27:10.294Z,135.00
2019-03-11T11:28:10.295Z,135.00
2019-03-11T11:29:11.518Z,129.38
2019-03-11T11:30:10.259Z,106.88
2019-03-11T11:31:10.241Z,90.00
2019-03-11T11:32:10.229Z,84.38
2019-03-11T11:33:10.222Z,101.25
2019-03-11T11:34:10.234Z,101.25
2019-03-11T11:35:10.196Z,95.62
2019-03-11T11:36:10.190Z,90.00
2019-03-11T11:37:10.176Z,67.50
2019-03-11T11:38:10.187Z,56.25
2019-03-11T11:39:10.155Z,56.25
2019-03-11T11:40:10.144Z,56.25
2019-03-11T11:41:10.163Z,61.88
2019-03-11T11:42:10.126Z,56.25
2019-03-11T11:43:10.115Z,56.25
2019-03-11T11:44:10.100Z,56.25
2019-03-11T11:45:10.084Z,56.25
2019-03-11T11:46:10.103Z,61.88
2019-03-11T11:47:10.070Z,73.12
2019-03-11T11:48:10.109Z,78.75
2019-03-11T11:49:10.049Z,84.38
2019-03-11T11:50:10.027Z,78.75
2019-03-11T11:51:10.038Z,90.00
2019-03-11T11:52:10.011Z,95.62
2019-03-11T11:53:09.995Z,106.88
2019-03-11T11:54:09.983Z,112.50
2019-03-11T11:55:09.982Z,112.50
2019-03-11T11:56:09.987Z,123.75
2019-03-11T11:57:09.961Z,135.00
2019-03-11T11:58:09.946Z,151.88
2019-03-11T11:59:09.951Z,174.38
2019-03-11T12:00:09.915Z,196.88
2019-03-11T12:01:09.927Z,151.88
2019-03-11T12:02:09.896Z,123.75
2019-03-11T12:03:09.884Z,112.50
2019-03-11T12:04:09.871Z,95.62
2019-03-11T12:05:09.865Z,101.25
2019-03-11T12:06:09.874Z,129.38
2019-03-11T12:07:09.838Z,163.12
2019-03-11T12:08:09.852Z,140.62
2019-03-11T12:09:09.818Z,106.88
2019-03-11T12:10:09.807Z,118.12
2019-03-11T12:11:09.796Z,112.50
2019-03-11T12:12:09.789Z,106.88
2019-03-11T12:13:09.795Z,118.12
2019-03-11T12:14:09.761Z,129.38
2019-03-11T12:15:09.751Z,118.12
2019-03-11T12:16:09.741Z,129.38
2019-03-11T12:17:09.729Z,118.12
2019-03-11T12:18:09.740Z,106.88
2019-03-11T12:19:09.704Z,90.00
2019-03-11T12:20:09.691Z,73.12
2019-03-11T12:21:09.713Z,78.75
2019-03-11T12:22:09.669Z,84.38
2019-03-11T12:23:09.670Z,84.38
2019-03-11T12:24:09.653Z,101.25
2019-03-11T12:25:09.639Z,118.12
2019-03-11T12:26:09.689Z,118.12
2019-03-11T12:27:09.643Z,146.25
2019-03-11T12:28:09.602Z,140.62
2019-03-11T12:29:09.613Z,140.62
2019-03-11T12:30:09.580Z,123.75
2019-03-11T12:31:09.569Z,118.12
2019-03-11T12:32:09.559Z,140.62
2019-03-11T12:33:09.552Z,174.38
2019-03-11T12:34:09.566Z,180.00
2019-03-11T12:35:09.524Z,163.12
2019-03-11T12:36:09.610Z,163.12
2019-03-11T12:37:09.506Z,174.38
2019-03-11T12:38:09.494Z,174.38
2019-03-11T12:39:09.499Z,191.25
2019-03-11T12:40:09.474Z,208.12
2019-03-11T12:41:09.483Z,225.00
2019-03-11T12:42:09.449Z,219.38
2019-03-11T12:43:09.459Z,196.88
2019-03-11T12:44:09.425Z,163.12
2019-03-11T12:45:09.412Z,129.38
2019-03-11T12:46:09.428Z,163.12
2019-03-11T12:47:09.392Z,191.25
2019-03-11T12:48:09.379Z,174.38
2019-03-11T12:49:09.367Z,151.88
2019-03-11T12:50:09.359Z,135.00
2019-03-11T12:51:09.379Z,101.25
2019-03-11T12:52:09.338Z,101.25
2019-03-11T12:53:09.322Z,90.00
2019-03-11T12:54:09.316Z,84.38
2019-03-11T12:55:09.300Z,67.50
2019-03-11T12:56:09.313Z,78.75
2019-03-11T12:57:09.394Z,73.12